Home > Products > Valid Products > TAF

000
FTUS46 KOTX 072321
TAFSFF
TAF
KSFF 072321Z 0800/0824 05006G16KT P6SM VCSH SCT080 BKN150
     FM080600 04003KT P6SM SCT200
     FM081800 05004KT P6SM SKC=



000
FTUS46 KOTX 072321
TAFPUW
TAF
KPUW 072321Z 0800/0824 30007KT P6SM FEW100 SCT150
     FM080500 06003KT P6SM FEW120 SCT200
     FM081800 05005KT P6SM SKC=



000
FTUS46 KOTX 072321
TAFLWS
TAF
KLWS 072321Z 0800/0824 12009KT P6SM VCSH BKN130 BKN200
     FM080500 19005KT P6SM SCT200
     FM081000 VRB04KT P6SM FEW200
     FM082000 36006KT P6SM SKC=



000
FTUS46 KOTX 072321
TAFGEG
TAF
KGEG 072321Z 0800/0824 04008G18KT P6SM VCSH SCT080 BKN150
     FM080600 06004KT P6SM SCT200
     FM081800 04005KT P6SM SKC=



000
FTUS46 KOTX 072321
TAFCOE
TAF
KCOE 072321Z 0800/0824 01015KT P6SM VCTS SCT080CB BKN150
     FM080400 03009KT P6SM SCT200
     FM081200 05010KT P6SM FEW200
      AMD LTD TO CLD AND VIS=



000
FTUS46 KOTX 072321
TAFEAT
TAF
KEAT 072321Z 0800/0824 24008KT P6SM SCT100 SCT200
     FM080300 31010KT P6SM FEW100 SCT200
     FM081800 24005KT P6SM SKC=



000
FTUS46 KOTX 072321
TAFMWH
TAF
KMWH 072321Z 0800/0824 VRB04KT P6SM SCT200
     FM080400 03008G18KT P6SM SCT100 SCT200
     FM080800 02007KT P6SM FEW100
     FM082000 30008KT P6SM SKC=



000
FTUS46 KOTX 072321
TAFPUW
TAF
KPUW 072321Z 0800/0824 30007KT P6SM FEW100 SCT150
     FM080500 06003KT P6SM FEW120 SCT200
     FM081800 05005KT P6SM SKC=



000
FTUS46 KOTX 072321
TAFGEG
TAF
KGEG 072321Z 0800/0824 04008G18KT P6SM VCSH SCT080 BKN150
     FM080600 06004KT P6SM SCT200
     FM081800 04005KT P6SM SKC=



000
FTUS46 KOTX 072321
TAFCOE
TAF
KCOE 072321Z 0800/0824 01015KT P6SM VCTS SCT080CB BKN150
     FM080400 03009KT P6SM SCT200
     FM081200 05010KT P6SM FEW200
      AMD LTD TO CLD AND VIS=



000
FTUS46 KOTX 072321
TAFSFF
TAF
KSFF 072321Z 0800/0824 05006G16KT P6SM VCSH SCT080 BKN150
     FM080600 04003KT P6SM SCT200
     FM081800 05004KT P6SM SKC=



000
FTUS46 KOTX 072321
TAFMWH
TAF
KMWH 072321Z 0800/0824 VRB04KT P6SM SCT200
     FM080400 03008G18KT P6SM SCT100 SCT200
     FM080800 02007KT P6SM FEW100
     FM082000 30008KT P6SM SKC=



000
FTUS46 KOTX 072321
TAFEAT
TAF
KEAT 072321Z 0800/0824 24008KT P6SM SCT100 SCT200
     FM080300 31010KT P6SM FEW100 SCT200
     FM081800 24005KT P6SM SKC=



000
FTUS46 KOTX 072321
TAFLWS
TAF
KLWS 072321Z 0800/0824 12009KT P6SM VCSH BKN130 BKN200
     FM080500 19005KT P6SM SCT200
     FM081000 VRB04KT P6SM FEW200
     FM082000 36006KT P6SM SKC=



000
FTUS46 KOTX 071723 CCA
TAFLWS
TAF COR
KLWS 071723Z 0718/0818 01005KT P6SM VCTS FEW090CB SCT200
     FM072100 33007KT P6SM VCTS SCT090CB BKN200
     FM080500 19005KT P6SM FEW200
     FM081000 09005KT P6SM FEW200=



000
FTUS46 KOTX 071723 CCA
TAFLWS
TAF COR
KLWS 071723Z 0718/0818 01005KT P6SM VCTS FEW090CB SCT200
     FM072100 33007KT P6SM VCTS SCT090CB BKN200
     FM080500 19005KT P6SM FEW200
     FM081000 09005KT P6SM FEW200=



000
FTUS46 KOTX 071721 CCA
TAFPUW
TAF COR
KPUW 071721Z 0718/0818 26008G13KT P6SM VCTS SCT090CB BKN200
     FM080500 06005KT P6SM FEW120 SCT200=



000
FTUS46 KOTX 071721 CCA
TAFPUW
TAF COR
KPUW 071721Z 0718/0818 26008G13KT P6SM VCTS SCT090CB BKN200
     FM080500 06005KT P6SM FEW120 SCT200=



000
FTUS46 KOTX 071721 CCA
TAFPUW
TAF COR
KPUW 071721Z 0718/0818 26008G13KT P6SM VCTS SCT090CB BKN200
     FM080500 06005KT P6SM FEW120 SCT200=



000
FTUS46 KOTX 071721 CCA
TAFPUW
TAF COR
KPUW 071721Z 0718/0818 26008G13KT P6SM VCTS SCT090CB BKN200
     FM080500 06005KT P6SM FEW120 SCT200=



000
FTUS46 KOTX 071720
TAFGEG
TAF
KGEG 071720Z 0718/0818 10010KT P6SM SCT100 BKN250
     FM080200 03010G20KT P6SM VCSH BKN080 BKN200
     FM080700 06004KT P6SM SCT200=



000
FTUS46 KOTX 071720
TAFPUW
TAF
KPUW 071720Z 0718/0818 26008G13KT P6SM SCT100 BKN200
     FM080500 06005KT P6SM FEW120 SCT200=



000
FTUS46 KOTX 071720
TAFGEG
TAF
KGEG 071720Z 0718/0818 10010KT P6SM SCT100 BKN250
     FM080200 03010G20KT P6SM VCSH BKN080 BKN200
     FM080700 06004KT P6SM SCT200=



000
FTUS46 KOTX 071720
TAFSFF
TAF
KSFF 071720Z 0718/0818 09008KT P6SM SCT100 BKN250
     FM080200 03008G18KT P6SM VCSH BKN080 BKN200
     FM080700 04003KT P6SM SCT200=



000
FTUS46 KOTX 071720
TAFGEG
TAF
KGEG 071720Z 0718/0818 10010KT P6SM SCT100 BKN250
     FM080200 03010G20KT P6SM VCSH BKN080 BKN200
     FM080700 06004KT P6SM SCT200=



000
FTUS46 KOTX 071720
TAFCOE
TAF
KCOE 071720Z 0718/0818 02012G18KT P6SM SCT100 BKN200
     FM072200 03006KT P6SM VCTS SCT080CB BKN120
     FM080400 03007G18KT P6SM SCT200
     FM081200 05010KT P6SM FEW200
      AMD LTD TO CLD AND VIS=



000
FTUS46 KOTX 071720
TAFCOE
TAF
KCOE 071720Z 0718/0818 02012G18KT P6SM SCT100 BKN200
     FM072200 03006KT P6SM VCTS SCT080CB BKN120
     FM080400 03007G18KT P6SM SCT200
     FM081200 05010KT P6SM FEW200
      AMD LTD TO CLD AND VIS=



000
FTUS46 KOTX 071720
TAFPUW
TAF
KPUW 071720Z 0718/0818 26008G13KT P6SM SCT100 BKN200
     FM080500 06005KT P6SM FEW120 SCT200=



000
FTUS46 KOTX 071720
TAFSFF
TAF
KSFF 071720Z 0718/0818 09008KT P6SM SCT100 BKN250
     FM080200 03008G18KT P6SM VCSH BKN080 BKN200
     FM080700 04003KT P6SM SCT200=



000
FTUS46 KOTX 071720
TAFEAT
TAF
KEAT 071720Z 0718/0818 32010KT P6SM SCT200
     FM080000 30010KT P6SM SCT100 SCT200
     FM080300 31012KT P6SM FEW100 SCT200=



000
FTUS46 KOTX 071720
TAFPUW
TAF
KPUW 071720Z 0718/0818 26008G13KT P6SM SCT100 BKN200
     FM080500 06005KT P6SM FEW120 SCT200=



000
FTUS46 KOTX 071720
TAFSFF
TAF
KSFF 071720Z 0718/0818 09008KT P6SM SCT100 BKN250
     FM080200 03008G18KT P6SM VCSH BKN080 BKN200
     FM080700 04003KT P6SM SCT200=



000
FTUS46 KOTX 071720
TAFGEG
TAF
KGEG 071720Z 0718/0818 10010KT P6SM SCT100 BKN250
     FM080200 03010G20KT P6SM VCSH BKN080 BKN200
     FM080700 06004KT P6SM SCT200=



000
FTUS46 KOTX 071720
TAFLWS
TAF
KLWS 071720Z 0718/0818 01005KT P6SM FEW100 SCT200
     FM072100 33007KT P6SM SCT100 BKN200
     FM081000 09005KT P6SM FEW200=



000
FTUS46 KOTX 071720
TAFCOE
TAF
KCOE 071720Z 0718/0818 02012G18KT P6SM SCT100 BKN200
     FM072200 03006KT P6SM VCTS SCT080CB BKN120
     FM080400 03007G18KT P6SM SCT200
     FM081200 05010KT P6SM FEW200
      AMD LTD TO CLD AND VIS=



000
FTUS46 KOTX 071720
TAFMWH
TAF
KMWH 071720Z 0718/0818 00000KT P6SM SCT200
     FM072000 22008KT P6SM SCT100 SCT200
     FM080400 01008G18KT P6SM SCT100 SCT200
     FM080800 02008KT P6SM FEW100=



000
FTUS46 KOTX 071720
TAFEAT
TAF
KEAT 071720Z 0718/0818 32010KT P6SM SCT200
     FM080000 30010KT P6SM SCT100 SCT200
     FM080300 31012KT P6SM FEW100 SCT200=



000
FTUS46 KOTX 071720
TAFEAT
TAF
KEAT 071720Z 0718/0818 32010KT P6SM SCT200
     FM080000 30010KT P6SM SCT100 SCT200
     FM080300 31012KT P6SM FEW100 SCT200=



000
FTUS46 KOTX 071720
TAFLWS
TAF
KLWS 071720Z 0718/0818 01005KT P6SM FEW100 SCT200
     FM072100 33007KT P6SM SCT100 BKN200
     FM081000 09005KT P6SM FEW200=



000
FTUS46 KOTX 071720
TAFMWH
TAF
KMWH 071720Z 0718/0818 00000KT P6SM SCT200
     FM072000 22008KT P6SM SCT100 SCT200
     FM080400 01008G18KT P6SM SCT100 SCT200
     FM080800 02008KT P6SM FEW100=



000
FTUS46 KOTX 071720
TAFLWS
TAF
KLWS 071720Z 0718/0818 01005KT P6SM FEW100 SCT200
     FM072100 33007KT P6SM SCT100 BKN200
     FM081000 09005KT P6SM FEW200=



000
FTUS46 KOTX 071720
TAFCOE
TAF
KCOE 071720Z 0718/0818 02012G18KT P6SM SCT100 BKN200
     FM072200 03006KT P6SM VCTS SCT080CB BKN120
     FM080400 03007G18KT P6SM SCT200
     FM081200 05010KT P6SM FEW200
      AMD LTD TO CLD AND VIS=



000
FTUS46 KOTX 071720
TAFEAT
TAF
KEAT 071720Z 0718/0818 32010KT P6SM SCT200
     FM080000 30010KT P6SM SCT100 SCT200
     FM080300 31012KT P6SM FEW100 SCT200=



000
FTUS46 KOTX 071720
TAFPUW
TAF
KPUW 071720Z 0718/0818 26008G13KT P6SM SCT100 BKN200
     FM080500 06005KT P6SM FEW120 SCT200=



000
FTUS46 KOTX 071720
TAFMWH
TAF
KMWH 071720Z 0718/0818 00000KT P6SM SCT200
     FM072000 22008KT P6SM SCT100 SCT200
     FM080400 01008G18KT P6SM SCT100 SCT200
     FM080800 02008KT P6SM FEW100=



000
FTUS46 KOTX 071720
TAFMWH
TAF
KMWH 071720Z 0718/0818 00000KT P6SM SCT200
     FM072000 22008KT P6SM SCT100 SCT200
     FM080400 01008G18KT P6SM SCT100 SCT200
     FM080800 02008KT P6SM FEW100=



000
FTUS46 KOTX 071720
TAFSFF
TAF
KSFF 071720Z 0718/0818 09008KT P6SM SCT100 BKN250
     FM080200 03008G18KT P6SM VCSH BKN080 BKN200
     FM080700 04003KT P6SM SCT200=



000
FTUS46 KOTX 071720
TAFLWS
TAF
KLWS 071720Z 0718/0818 01005KT P6SM FEW100 SCT200
     FM072100 33007KT P6SM SCT100 BKN200
     FM081000 09005KT P6SM FEW200=



000
FTUS46 KOTX 071622 AAA
TAFCOE
TAF AMD
KCOE 071622Z 0716/0812 02012G18KT P6SM SCT100 BKN200
     FM072200 03006KT P6SM VCTS SCT080CB BKN200
     FM080400 03007G18KT P6SM SCT200
      AMD LTD TO CLD AND VIS=



000
FTUS46 KOTX 071622 AAA
TAFCOE
TAF AMD
KCOE 071622Z 0716/0812 02012G18KT P6SM SCT100 BKN200
     FM072200 03006KT P6SM VCTS SCT080CB BKN200
     FM080400 03007G18KT P6SM SCT200
      AMD LTD TO CLD AND VIS=



000
FTUS46 KOTX 071130
TAFEAT
TAF
KEAT 071130Z 0712/0812 32010KT P6SM SCT200
     FM080000 30006KT P6SM SCT100 SCT200
     FM080300 31009KT P6SM SCT200=



000
FTUS46 KOTX 071130
TAFLWS
TAF
KLWS 071130Z 0712/0812 00000KT P6SM SCT200
     FM072100 33007KT P6SM SCT100 BKN200
     FM081000 05005KT P6SM FEW200=



000
FTUS46 KOTX 071130
TAFSFF
TAF
KSFF 071130Z 0712/0812 VRB04KT P6SM SCT120 BKN250
     FM080200 03006G18KT P6SM VCSH BKN080 BKN200
     FM080700 VRB03KT P6SM SCT200=



000
FTUS46 KOTX 071130
TAFMWH
TAF
KMWH 071130Z 0712/0812 00000KT P6SM SCT200
     FM072100 22008KT P6SM SCT100 SCT200
     FM080400 01008G18KT P6SM SCT200=



000
FTUS46 KOTX 071130
TAFPUW
TAF
KPUW 071130Z 0712/0812 00000KT P6SM SCT200
     FM071500 27008G13KT P6SM SCT100 BKN200
     FM080500 06005KT P6SM SCT200=



000
FTUS46 KOTX 071130
TAFSFF
TAF
KSFF 071130Z 0712/0812 VRB04KT P6SM SCT120 BKN250
     FM080200 03006G18KT P6SM VCSH BKN080 BKN200
     FM080700 VRB03KT P6SM SCT200=



000
FTUS46 KOTX 071130
TAFCOE
TAF
KCOE 071130Z 0712/0812 05008KT P6SM SCT100 BKN200
     FM072200 03006KT P6SM VCTS SCT080CB BKN200
     FM080400 03007G18KT P6SM SCT200
      AMD LTD TO CLD AND VIS=



000
FTUS46 KOTX 071130
TAFPUW
TAF
KPUW 071130Z 0712/0812 00000KT P6SM SCT200
     FM071500 27008G13KT P6SM SCT100 BKN200
     FM080500 06005KT P6SM SCT200=



000
FTUS46 KOTX 071130
TAFCOE
TAF
KCOE 071130Z 0712/0812 05008KT P6SM SCT100 BKN200
     FM072200 03006KT P6SM VCTS SCT080CB BKN200
     FM080400 03007G18KT P6SM SCT200
      AMD LTD TO CLD AND VIS=



000
FTUS46 KOTX 071130
TAFLWS
TAF
KLWS 071130Z 0712/0812 00000KT P6SM SCT200
     FM072100 33007KT P6SM SCT100 BKN200
     FM081000 05005KT P6SM FEW200=



000
FTUS46 KOTX 071130
TAFGEG
TAF
KGEG 071130Z 0712/0812 12004KT P6SM SCT120 BKN250
     FM080200 03007G20KT P6SM VCSH BKN080 BKN200
     FM080700 06004KT P6SM SCT200=



000
FTUS46 KOTX 071130
TAFEAT
TAF
KEAT 071130Z 0712/0812 32010KT P6SM SCT200
     FM080000 30006KT P6SM SCT100 SCT200
     FM080300 31009KT P6SM SCT200=



000
FTUS46 KOTX 071130
TAFCOE
TAF
KCOE 071130Z 0712/0812 05008KT P6SM SCT100 BKN200
     FM072200 03006KT P6SM VCTS SCT080CB BKN200
     FM080400 03007G18KT P6SM SCT200
      AMD LTD TO CLD AND VIS=



000
FTUS46 KOTX 071130
TAFLWS
TAF
KLWS 071130Z 0712/0812 00000KT P6SM SCT200
     FM072100 33007KT P6SM SCT100 BKN200
     FM081000 05005KT P6SM FEW200=



000
FTUS46 KOTX 071130
TAFMWH
TAF
KMWH 071130Z 0712/0812 00000KT P6SM SCT200
     FM072100 22008KT P6SM SCT100 SCT200
     FM080400 01008G18KT P6SM SCT200=



000
FTUS46 KOTX 071130
TAFSFF
TAF
KSFF 071130Z 0712/0812 VRB04KT P6SM SCT120 BKN250
     FM080200 03006G18KT P6SM VCSH BKN080 BKN200
     FM080700 VRB03KT P6SM SCT200=



000
FTUS46 KOTX 071130
TAFPUW
TAF
KPUW 071130Z 0712/0812 00000KT P6SM SCT200
     FM071500 27008G13KT P6SM SCT100 BKN200
     FM080500 06005KT P6SM SCT200=



000
FTUS46 KOTX 071130
TAFGEG
TAF
KGEG 071130Z 0712/0812 12004KT P6SM SCT120 BKN250
     FM080200 03007G20KT P6SM VCSH BKN080 BKN200
     FM080700 06004KT P6SM SCT200=



000
FTUS46 KOTX 071130
TAFEAT
TAF
KEAT 071130Z 0712/0812 32010KT P6SM SCT200
     FM080000 30006KT P6SM SCT100 SCT200
     FM080300 31009KT P6SM SCT200=



000
FTUS46 KOTX 071130
TAFGEG
TAF
KGEG 071130Z 0712/0812 12004KT P6SM SCT120 BKN250
     FM080200 03007G20KT P6SM VCSH BKN080 BKN200
     FM080700 06004KT P6SM SCT200=



000
FTUS46 KOTX 071130
TAFMWH
TAF
KMWH 071130Z 0712/0812 00000KT P6SM SCT200
     FM072100 22008KT P6SM SCT100 SCT200
     FM080400 01008G18KT P6SM SCT200=



000
FTUS46 KOTX 070528
TAFCOE
TAF
KCOE 070528Z 0706/0806 07005KT P6SM SCT120 BKN200
     FM071200 05007KT P6SM BKN130 BKN200
     FM072200 34006G12KT P6SM VCTS SCT100CB BKN200
     FM080300 03007KT P6SM SCT200
      AMD LTD TO CLD AND VIS=



000
FTUS46 KOTX 070528
TAFPUW
TAF
KPUW 070528Z 0706/0806 VRB02KT P6SM SCT200
     FM071500 25008KT P6SM SCT130 BKN200
     FM080400 06003KT P6SM SCT200=



000
FTUS46 KOTX 070528
TAFPUW
TAF
KPUW 070528Z 0706/0806 VRB02KT P6SM SCT200
     FM071500 25008KT P6SM SCT130 BKN200
     FM080400 06003KT P6SM SCT200=



000
FTUS46 KOTX 070528
TAFCOE
TAF
KCOE 070528Z 0706/0806 07005KT P6SM SCT120 BKN200
     FM071200 05007KT P6SM BKN130 BKN200
     FM072200 34006G12KT P6SM VCTS SCT100CB BKN200
     FM080300 03007KT P6SM SCT200
      AMD LTD TO CLD AND VIS=



000
FTUS46 KOTX 070528
TAFEAT
TAF
KEAT 070528Z 0706/0806 29012KT P6SM SCT200
     FM072000 28006KT P6SM SCT100 SCT200
     FM080300 31009KT P6SM SCT200=



000
FTUS46 KOTX 070528
TAFMWH
TAF
KMWH 070528Z 0706/0806 34008KT P6SM SCT200
     FM072100 22008KT P6SM SCT100 SCT200
     FM080300 34008KT P6SM SCT200=



000
FTUS46 KOTX 070528
TAFGEG
TAF
KGEG 070528Z 0706/0806 08008KT P6SM FEW120 SCT200
     FM071200 10005KT P6SM BKN130 BKN200
     FM072200 03007G12KT P6SM SCT100 BKN200
     FM080400 06004KT P6SM SCT200=



000
FTUS46 KOTX 070528
TAFSFF
TAF
KSFF 070528Z 0706/0806 VRB02KT P6SM FEW120 SCT200
     FM071200 VRB03KT P6SM BKN130 BKN200
     FM072200 33006G10KT P6SM SCT100 BKN200
     FM080300 VRB03KT P6SM SCT200=



000
FTUS46 KOTX 070528
TAFLWS
TAF
KLWS 070528Z 0706/0806 15003KT P6SM SCT200
     FM072100 33007KT P6SM SCT100 BKN200
     FM080300 35005KT P6SM SCT200=



000
FTUS46 KOTX 070528
TAFCOE
TAF
KCOE 070528Z 0706/0806 07005KT P6SM SCT120 BKN200
     FM071200 05007KT P6SM BKN130 BKN200
     FM072200 34006G12KT P6SM VCTS SCT100CB BKN200
     FM080300 03007KT P6SM SCT200
      AMD LTD TO CLD AND VIS=



000
FTUS46 KOTX 070528
TAFSFF
TAF
KSFF 070528Z 0706/0806 VRB02KT P6SM FEW120 SCT200
     FM071200 VRB03KT P6SM BKN130 BKN200
     FM072200 33006G10KT P6SM SCT100 BKN200
     FM080300 VRB03KT P6SM SCT200=



000
FTUS46 KOTX 070528
TAFGEG
TAF
KGEG 070528Z 0706/0806 08008KT P6SM FEW120 SCT200
     FM071200 10005KT P6SM BKN130 BKN200
     FM072200 03007G12KT P6SM SCT100 BKN200
     FM080400 06004KT P6SM SCT200=



000
FTUS46 KOTX 070528
TAFLWS
TAF
KLWS 070528Z 0706/0806 15003KT P6SM SCT200
     FM072100 33007KT P6SM SCT100 BKN200
     FM080300 35005KT P6SM SCT200=



000
FTUS46 KOTX 070528
TAFSFF
TAF
KSFF 070528Z 0706/0806 VRB02KT P6SM FEW120 SCT200
     FM071200 VRB03KT P6SM BKN130 BKN200
     FM072200 33006G10KT P6SM SCT100 BKN200
     FM080300 VRB03KT P6SM SCT200=



000
FTUS46 KOTX 070528
TAFLWS
TAF
KLWS 070528Z 0706/0806 15003KT P6SM SCT200
     FM072100 33007KT P6SM SCT100 BKN200
     FM080300 35005KT P6SM SCT200=



000
FTUS46 KOTX 070528
TAFMWH
TAF
KMWH 070528Z 0706/0806 34008KT P6SM SCT200
     FM072100 22008KT P6SM SCT100 SCT200
     FM080300 34008KT P6SM SCT200=



000
FTUS46 KOTX 070528
TAFGEG
TAF
KGEG 070528Z 0706/0806 08008KT P6SM FEW120 SCT200
     FM071200 10005KT P6SM BKN130 BKN200
     FM072200 03007G12KT P6SM SCT100 BKN200
     FM080400 06004KT P6SM SCT200=



000
FTUS46 KOTX 070528
TAFPUW
TAF
KPUW 070528Z 0706/0806 VRB02KT P6SM SCT200
     FM071500 25008KT P6SM SCT130 BKN200
     FM080400 06003KT P6SM SCT200=



000
FTUS46 KOTX 070528
TAFEAT
TAF
KEAT 070528Z 0706/0806 29012KT P6SM SCT200
     FM072000 28006KT P6SM SCT100 SCT200
     FM080300 31009KT P6SM SCT200=



000
FTUS46 KOTX 070528
TAFMWH
TAF
KMWH 070528Z 0706/0806 34008KT P6SM SCT200
     FM072100 22008KT P6SM SCT100 SCT200
     FM080300 34008KT P6SM SCT200=



000
FTUS46 KOTX 070528
TAFEAT
TAF
KEAT 070528Z 0706/0806 29012KT P6SM SCT200
     FM072000 28006KT P6SM SCT100 SCT200
     FM080300 31009KT P6SM SCT200=



000
FTUS46 KOTX 062329
TAFEAT
TAF
KEAT 062329Z 0700/0724 11004KT P6SM SCT200
     FM070200 30011KT P6SM FEW100 SCT200
     FM072100 28006KT P6SM SCT100 SCT200=



000
FTUS46 KOTX 062329
TAFPUW
TAF
KPUW 062329Z 0700/0724 03005KT P6SM BKN120 BKN200
     FM070600 VRB02KT P6SM SCT150 BKN200
     FM072100 26008KT P6SM BKN130 BKN200=



000
FTUS46 KOTX 062329
TAFLWS
TAF
KLWS 062329Z 0700/0724 08004KT P6SM SCT130 SCT200
     FM070600 VRB04KT P6SM SCT120 SCT200
     FM072100 33007KT P6SM SCT100 BKN200=



000
FTUS46 KOTX 062329
TAFGEG
TAF
KGEG 062329Z 0700/0724 14007KT P6SM SCT110 SCT150 BKN200
     FM071200 17004KT P6SM BKN130 BKN200
     FM072200 32007KT P6SM BKN100 BKN200=



000
FTUS46 KOTX 062329
TAFMWH
TAF
KMWH 062329Z 0700/0724 19009KT P6SM SCT200
     FM070600 28005KT P6SM SCT120 SCT200
     FM072100 22008KT P6SM SCT100 SCT200=



000
FTUS46 KOTX 062329
TAFSFF
TAF
KSFF 062329Z 0700/0724 14004KT P6SM SCT110 BKN200
     FM071200 VRB03KT P6SM BKN130 BKN200
     FM072200 29006KT P6SM BKN100 BKN200=



000
FTUS46 KOTX 062329
TAFCOE
TAF
KCOE 062329Z 0700/0724 09003KT P6SM FEW120 BKN200
     FM071200 07005KT P6SM BKN130 BKN200
     FM072200 28006KT P6SM BKN100 BKN200
      AMD LTD TO CLD AND VIS=



000
FTUS46 KOTX 062329
TAFMWH
TAF
KMWH 062329Z 0700/0724 19009KT P6SM SCT200
     FM070600 28005KT P6SM SCT120 SCT200
     FM072100 22008KT P6SM SCT100 SCT200=



000
FTUS46 KOTX 062329
TAFPUW
TAF
KPUW 062329Z 0700/0724 03005KT P6SM BKN120 BKN200
     FM070600 VRB02KT P6SM SCT150 BKN200
     FM072100 26008KT P6SM BKN130 BKN200=



000
FTUS46 KOTX 062329
TAFCOE
TAF
KCOE 062329Z 0700/0724 09003KT P6SM FEW120 BKN200
     FM071200 07005KT P6SM BKN130 BKN200
     FM072200 28006KT P6SM BKN100 BKN200
      AMD LTD TO CLD AND VIS=



000
FTUS46 KOTX 062329
TAFGEG
TAF
KGEG 062329Z 0700/0724 14007KT P6SM SCT110 SCT150 BKN200
     FM071200 17004KT P6SM BKN130 BKN200
     FM072200 32007KT P6SM BKN100 BKN200=



000
FTUS46 KOTX 062329
TAFSFF
TAF
KSFF 062329Z 0700/0724 14004KT P6SM SCT110 BKN200
     FM071200 VRB03KT P6SM BKN130 BKN200
     FM072200 29006KT P6SM BKN100 BKN200=



000
FTUS46 KOTX 062329
TAFLWS
TAF
KLWS 062329Z 0700/0724 08004KT P6SM SCT130 SCT200
     FM070600 VRB04KT P6SM SCT120 SCT200
     FM072100 33007KT P6SM SCT100 BKN200=



000
FTUS46 KOTX 062329
TAFEAT
TAF
KEAT 062329Z 0700/0724 11004KT P6SM SCT200
     FM070200 30011KT P6SM FEW100 SCT200
     FM072100 28006KT P6SM SCT100 SCT200=



000
FTUS46 KOTX 061737
TAFSFF
TAF
KSFF 061737Z 0618/0718 VRB04KT P6SM BKN200
     FM070800 03003KT P6SM BKN110 BKN200=



000
FTUS46 KOTX 061737
TAFCOE
TAF
KCOE 061737Z 0618/0718 02012KT P6SM SCT200
     FM070700 07005KT P6SM BKN100 BKN200
      AMD LTD TO CLD AND VIS=



000
FTUS46 KOTX 061737
TAFPUW
TAF
KPUW 061737Z 0618/0718 VRB04KT P6SM SKC
     FM062200 30006KT P6SM SCT200=



000
FTUS46 KOTX 061737
TAFMWH
TAF
KMWH 061737Z 0618/0718 10006KT P6SM SCT200
     FM062100 19007KT P6SM SKC
     FM070500 34005KT P6SM SCT100=



000
FTUS46 KOTX 061737
TAFGEG
TAF
KGEG 061737Z 0618/0718 04008KT P6SM SCT130 BKN200
     FM070800 13004KT P6SM BKN100 BKN200=



000
FTUS46 KOTX 061737
TAFLWS
TAF
KLWS 061737Z 0618/0718 00000KT P6SM SKC
     FM062100 34006KT P6SM SKC
     FM071000 14004KT P6SM SCT100=



000
FTUS46 KOTX 061737
TAFEAT
TAF
KEAT 061737Z 0618/0718 VRB03KT P6SM SCT200
     FM070200 30009KT P6SM FEW100=



000
FTUS46 KOTX 061737
TAFLWS
TAF
KLWS 061737Z 0618/0718 00000KT P6SM SKC
     FM062100 34006KT P6SM SKC
     FM071000 14004KT P6SM SCT100=



000
FTUS46 KOTX 061737
TAFEAT
TAF
KEAT 061737Z 0618/0718 VRB03KT P6SM SCT200
     FM070200 30009KT P6SM FEW100=



000
FTUS46 KOTX 061737
TAFPUW
TAF
KPUW 061737Z 0618/0718 VRB04KT P6SM SKC
     FM062200 30006KT P6SM SCT200=



000
FTUS46 KOTX 061737
TAFGEG
TAF
KGEG 061737Z 0618/0718 04008KT P6SM SCT130 BKN200
     FM070800 13004KT P6SM BKN100 BKN200=



000
FTUS46 KOTX 061737
TAFCOE
TAF
KCOE 061737Z 0618/0718 02012KT P6SM SCT200
     FM070700 07005KT P6SM BKN100 BKN200
      AMD LTD TO CLD AND VIS=



000
FTUS46 KOTX 061737
TAFMWH
TAF
KMWH 061737Z 0618/0718 10006KT P6SM SCT200
     FM062100 19007KT P6SM SKC
     FM070500 34005KT P6SM SCT100=



000
FTUS46 KOTX 061737
TAFSFF
TAF
KSFF 061737Z 0618/0718 VRB04KT P6SM BKN200
     FM070800 03003KT P6SM BKN110 BKN200=



000
FTUS46 KOTX 061136
TAFSFF
TAF
KSFF 061136Z 0612/0712 07004KT P6SM FEW200
     FM070800 03003KT P6SM SCT100=



000
FTUS46 KOTX 061136
TAFEAT
TAF
KEAT 061136Z 0612/0712 09004KT P6SM SKC
     FM062000 14004KT P6SM SKC
     FM070300 31008KT P6SM SCT100=



000
FTUS46 KOTX 061136
TAFLWS
TAF
KLWS 061136Z 0612/0712 08004KT P6SM SKC
     FM062100 34005KT P6SM SKC
     FM070400 VRB03KT P6SM FEW100=



000
FTUS46 KOTX 061136
TAFMWH
TAF
KMWH 061136Z 0612/0712 36006KT P6SM SKC
     FM062100 18007KT P6SM SKC
     FM070800 34005KT P6SM SCT100=



000
FTUS46 KOTX 061136
TAFEAT
TAF
KEAT 061136Z 0612/0712 09004KT P6SM SKC
     FM062000 14004KT P6SM SKC
     FM070300 31008KT P6SM SCT100=



000
FTUS46 KOTX 061136
TAFLWS
TAF
KLWS 061136Z 0612/0712 08004KT P6SM SKC
     FM062100 34005KT P6SM SKC
     FM070400 VRB03KT P6SM FEW100=



000
FTUS46 KOTX 061136
TAFSFF
TAF
KSFF 061136Z 0612/0712 07004KT P6SM FEW200
     FM070800 03003KT P6SM SCT100=



000
FTUS46 KOTX 061136
TAFMWH
TAF
KMWH 061136Z 0612/0712 36006KT P6SM SKC
     FM062100 18007KT P6SM SKC
     FM070800 34005KT P6SM SCT100=



000
FTUS46 KOTX 061136
TAFPUW
TAF
KPUW 061136Z 0612/0712 00000KT P6SM SKC
     FM061500 09007KT P6SM SKC
     FM070300 VRB02KT P6SM SCT100=



000
FTUS46 KOTX 061136
TAFCOE
TAF
KCOE 061136Z 0612/0712 03010KT P6SM FEW200
     FM070600 12005KT P6SM SCT100
      AMD LTD TO CLD AND VIS=



000
FTUS46 KOTX 061136
TAFCOE
TAF
KCOE 061136Z 0612/0712 03010KT P6SM FEW200
     FM070600 12005KT P6SM SCT100
      AMD LTD TO CLD AND VIS=



000
FTUS46 KOTX 061136
TAFPUW
TAF
KPUW 061136Z 0612/0712 00000KT P6SM SKC
     FM061500 09007KT P6SM SKC
     FM070300 VRB02KT P6SM SCT100=



000
FTUS46 KOTX 061136
TAFGEG
TAF
KGEG 061136Z 0612/0712 07007KT P6SM FEW200
     FM070600 19004KT P6SM SCT100=



000
FTUS46 KOTX 061136
TAFGEG
TAF
KGEG 061136Z 0612/0712 07007KT P6SM FEW200
     FM070600 19004KT P6SM SCT100=



000
FTUS46 KOTX 061136
TAFGEG
TAF
KGEG 061136Z 0612/0712 07007KT P6SM FEW200
     FM070600 19004KT P6SM SCT100=



000
FTUS46 KOTX 061136
TAFCOE
TAF
KCOE 061136Z 0612/0712 03010KT P6SM FEW200
     FM070600 12005KT P6SM SCT100
      AMD LTD TO CLD AND VIS=



000
FTUS46 KOTX 061136
TAFPUW
TAF
KPUW 061136Z 0612/0712 00000KT P6SM SKC
     FM061500 09007KT P6SM SKC
     FM070300 VRB02KT P6SM SCT100=



000
FTUS46 KOTX 061136
TAFMWH
TAF
KMWH 061136Z 0612/0712 36006KT P6SM SKC
     FM062100 18007KT P6SM SKC
     FM070800 34005KT P6SM SCT100=



000
FTUS46 KOTX 061136
TAFSFF
TAF
KSFF 061136Z 0612/0712 07004KT P6SM FEW200
     FM070800 03003KT P6SM SCT100=



000
FTUS46 KOTX 061136
TAFEAT
TAF
KEAT 061136Z 0612/0712 09004KT P6SM SKC
     FM062000 14004KT P6SM SKC
     FM070300 31008KT P6SM SCT100=



000
FTUS46 KOTX 061136
TAFLWS
TAF
KLWS 061136Z 0612/0712 08004KT P6SM SKC
     FM062100 34005KT P6SM SKC
     FM070400 VRB03KT P6SM FEW100=



000
FTUS46 KOTX 061136
TAFCOE
TAF
KCOE 061136Z 0612/0712 03010KT P6SM FEW200
     FM070600 12005KT P6SM SCT100
      AMD LTD TO CLD AND VIS=



000
FTUS46 KOTX 061136
TAFLWS
TAF
KLWS 061136Z 0612/0712 08004KT P6SM SKC
     FM062100 34005KT P6SM SKC
     FM070400 VRB03KT P6SM FEW100=



000
FTUS46 KOTX 061136
TAFEAT
TAF
KEAT 061136Z 0612/0712 09004KT P6SM SKC
     FM062000 14004KT P6SM SKC
     FM070300 31008KT P6SM SCT100=



000
FTUS46 KOTX 061136
TAFGEG
TAF
KGEG 061136Z 0612/0712 07007KT P6SM FEW200
     FM070600 19004KT P6SM SCT100=



000
FTUS46 KOTX 061136
TAFPUW
TAF
KPUW 061136Z 0612/0712 00000KT P6SM SKC
     FM061500 09007KT P6SM SKC
     FM070300 VRB02KT P6SM SCT100=



000
FTUS46 KOTX 061136
TAFMWH
TAF
KMWH 061136Z 0612/0712 36006KT P6SM SKC
     FM062100 18007KT P6SM SKC
     FM070800 34005KT P6SM SCT100=



000
FTUS46 KOTX 061136
TAFSFF
TAF
KSFF 061136Z 0612/0712 07004KT P6SM FEW200
     FM070800 03003KT P6SM SCT100=



000
FTUS46 KOTX 060529
TAFMWH
TAF
KMWH 060529Z 0606/0706 03007KT P6SM SKC
     FM062100 18007KT P6SM SKC=



000
FTUS46 KOTX 060529
TAFLWS
TAF
KLWS 060529Z 0606/0706 11006KT P6SM SKC
     FM061800 34005KT P6SM SKC=



000
FTUS46 KOTX 060529
TAFSFF
TAF
KSFF 060529Z 0606/0706 07010G16KT P6SM SKC
     FM060800 07006KT P6SM SKC=



000
FTUS46 KOTX 060529
TAFPUW
TAF
KPUW 060529Z 0606/0706 01010KT 6SM HZ SKC
     FM062100 33006KT P6SM SKC=



000
FTUS46 KOTX 060529
TAFGEG
TAF
KGEG 060529Z 0606/0706 07010KT P6SM FEW200
     FM062300 31007KT P6SM SKC=



000
FTUS46 KOTX 060529
TAFEAT
TAF
KEAT 060529Z 0606/0706 10006KT P6SM SKC
     FM060700 32007KT P6SM SCT080
     FM061800 VRB06KT P6SM SKC
     FM070300 31008KT P6SM SKC=



000
FTUS46 KOTX 060529
TAFCOE
TAF
KCOE 060529Z 0606/0706 05012KT P6SM SKC
     FM061800 03007KT P6SM SKC
     FM062200 33005KT P6SM FEW120
      AMD LTD TO CLD AND VIS=



000
FTUS46 KOTX 060529
TAFMWH
TAF
KMWH 060529Z 0606/0706 03007KT P6SM SKC
     FM062100 18007KT P6SM SKC=



000
FTUS46 KOTX 060529
TAFLWS
TAF
KLWS 060529Z 0606/0706 11006KT P6SM SKC
     FM061800 34005KT P6SM SKC=



000
FTUS46 KOTX 060529
TAFSFF
TAF
KSFF 060529Z 0606/0706 07010G16KT P6SM SKC
     FM060800 07006KT P6SM SKC=



000
FTUS46 KOTX 060529
TAFPUW
TAF
KPUW 060529Z 0606/0706 01010KT 6SM HZ SKC
     FM062100 33006KT P6SM SKC=



000
FTUS46 KOTX 060529
TAFGEG
TAF
KGEG 060529Z 0606/0706 07010KT P6SM FEW200
     FM062300 31007KT P6SM SKC=



000
FTUS46 KOTX 060529
TAFEAT
TAF
KEAT 060529Z 0606/0706 10006KT P6SM SKC
     FM060700 32007KT P6SM SCT080
     FM061800 VRB06KT P6SM SKC
     FM070300 31008KT P6SM SKC=



000
FTUS46 KOTX 060529
TAFCOE
TAF
KCOE 060529Z 0606/0706 05012KT P6SM SKC
     FM061800 03007KT P6SM SKC
     FM062200 33005KT P6SM FEW120
      AMD LTD TO CLD AND VIS=



000
FTUS46 KOTX 060529
TAFPUW
TAF
KPUW 060529Z 0606/0706 01010KT 6SM HZ SKC
     FM062100 33006KT P6SM SKC=



000
FTUS46 KOTX 060529
TAFEAT
TAF
KEAT 060529Z 0606/0706 10006KT P6SM SKC
     FM060700 32007KT P6SM SCT080
     FM061800 VRB06KT P6SM SKC
     FM070300 31008KT P6SM SKC=



000
FTUS46 KOTX 060529
TAFGEG
TAF
KGEG 060529Z 0606/0706 07010KT P6SM FEW200
     FM062300 31007KT P6SM SKC=



000
FTUS46 KOTX 060529
TAFSFF
TAF
KSFF 060529Z 0606/0706 07010G16KT P6SM SKC
     FM060800 07006KT P6SM SKC=



000
FTUS46 KOTX 060529
TAFLWS
TAF
KLWS 060529Z 0606/0706 11006KT P6SM SKC
     FM061800 34005KT P6SM SKC=



000
FTUS46 KOTX 060529
TAFMWH
TAF
KMWH 060529Z 0606/0706 03007KT P6SM SKC
     FM062100 18007KT P6SM SKC=



000
FTUS46 KOTX 060529
TAFCOE
TAF
KCOE 060529Z 0606/0706 05012KT P6SM SKC
     FM061800 03007KT P6SM SKC
     FM062200 33005KT P6SM FEW120
      AMD LTD TO CLD AND VIS=



000
FTUS46 KOTX 060529
TAFGEG
TAF
KGEG 060529Z 0606/0706 07010KT P6SM FEW200
     FM062300 31007KT P6SM SKC=



000
FTUS46 KOTX 060529
TAFPUW
TAF
KPUW 060529Z 0606/0706 01010KT 6SM HZ SKC
     FM062100 33006KT P6SM SKC=



000
FTUS46 KOTX 060529
TAFLWS
TAF
KLWS 060529Z 0606/0706 11006KT P6SM SKC
     FM061800 34005KT P6SM SKC=



000
FTUS46 KOTX 060529
TAFEAT
TAF
KEAT 060529Z 0606/0706 10006KT P6SM SKC
     FM060700 32007KT P6SM SCT080
     FM061800 VRB06KT P6SM SKC
     FM070300 31008KT P6SM SKC=



000
FTUS46 KOTX 060529
TAFMWH
TAF
KMWH 060529Z 0606/0706 03007KT P6SM SKC
     FM062100 18007KT P6SM SKC=



000
FTUS46 KOTX 060529
TAFSFF
TAF
KSFF 060529Z 0606/0706 07010G16KT P6SM SKC
     FM060800 07006KT P6SM SKC=



000
FTUS46 KOTX 060529
TAFCOE
TAF
KCOE 060529Z 0606/0706 05012KT P6SM SKC
     FM061800 03007KT P6SM SKC
     FM062200 33005KT P6SM FEW120
      AMD LTD TO CLD AND VIS=



000
FTUS46 KOTX 060406 AAB
TAFPUW
TAF AMD
KPUW 060406Z 0604/0624 01009G13KT 6SM FU SCT200
     FM060600 06005KT P6SM SKC=



000
FTUS46 KOTX 060406 AAB
TAFPUW
TAF AMD
KPUW 060406Z 0604/0624 01009G13KT 6SM FU SCT200
     FM060600 06005KT P6SM SKC=



000
FTUS46 KOTX 060302 AAA
TAFLWS
TAF AMD
KLWS 060302Z 0603/0624 01011G19KT P6SM SCT200
     FM060600 VRB05KT P6SM SKC=



000
FTUS46 KOTX 060302 AAA
TAFLWS
TAF AMD
KLWS 060302Z 0603/0624 01011G19KT P6SM SCT200
     FM060600 VRB05KT P6SM SKC=



000
FTUS46 KOTX 060301 AAA
TAFPUW
TAF AMD
KPUW 060301Z 0603/0624 01009G13KT P6SM SCT200
     FM060600 06005KT P6SM SKC=



000
FTUS46 KOTX 060301 AAA
TAFPUW
TAF AMD
KPUW 060301Z 0603/0624 01009G13KT P6SM SCT200
     FM060600 06005KT P6SM SKC=



000
FTUS46 KOTX 060301 AAA
TAFPUW
TAF AMD
KPUW 060301Z 0603/0624 01009G13KT P6SM SCT200
     FM060600 06005KT P6SM SKC=



000
FTUS46 KOTX 060259 AAA
TAFSFF
TAF AMD
KSFF 060259Z 0603/0624 06010G16KT P6SM FEW200
     FM060600 03004KT P6SM SKC=



000
FTUS46 KOTX 060259 AAA
TAFSFF
TAF AMD
KSFF 060259Z 0603/0624 06010G16KT P6SM FEW200
     FM060600 03004KT P6SM SKC=



000
FTUS46 KOTX 060058 AAA
TAFGEG
TAF AMD
KGEG 060058Z 0601/0624 06011G19KT P6SM SCT200
     FM060300 05006KT P6SM SKC
     FM062300 33007KT P6SM SKC=



000
FTUS46 KOTX 060058 AAA
TAFGEG
TAF AMD
KGEG 060058Z 0601/0624 06011G19KT P6SM SCT200
     FM060300 05006KT P6SM SKC
     FM062300 33007KT P6SM SKC=



000
FTUS46 KOTX 052328
TAFSFF
TAF
KSFF 052328Z 0600/0624 06010G16KT P6SM FEW050 FEW200
     FM060200 03004KT P6SM SKC=



000
FTUS46 KOTX 052328
TAFMWH
TAF
KMWH 052328Z 0600/0624 02014G20KT P6SM FEW200
     FM060200 03007KT P6SM SKC
     FM062100 18007KT P6SM SKC=



000
FTUS46 KOTX 052328
TAFPUW
TAF
KPUW 052328Z 0600/0624 29012G15KT P6SM FEW100 SCT200
     FM060200 35012KT P6SM SKC
     FM060500 06005KT P6SM SKC=



000
FTUS46 KOTX 052328
TAFGEG
TAF
KGEG 052328Z 0600/0624 04014G19KT P6SM FEW050 FEW200
     FM060300 04006KT P6SM SKC
     FM062300 33007KT P6SM SKC=



000
FTUS46 KOTX 052328
TAFGEG
TAF
KGEG 052328Z 0600/0624 04014G19KT P6SM FEW050 FEW200
     FM060300 04006KT P6SM SKC
     FM062300 33007KT P6SM SKC=



000
FTUS46 KOTX 052328
TAFLWS
TAF
KLWS 052328Z 0600/0624 31011G16KT P6SM FEW100 SCT200
     FM060200 VRB05KT P6SM SKC=



000
FTUS46 KOTX 052328
TAFPUW
TAF
KPUW 052328Z 0600/0624 29012G15KT P6SM FEW100 SCT200
     FM060200 35012KT P6SM SKC
     FM060500 06005KT P6SM SKC=



000
FTUS46 KOTX 052328
TAFCOE
TAF
KCOE 052328Z 0600/0624 03015G21KT P6SM FEW050 FEW200
     FM060400 05012KT P6SM SKC
     FM062200 33006KT P6SM FEW120
      AMD LTD TO CLD AND VIS=



000
FTUS46 KOTX 052328
TAFEAT
TAF
KEAT 052328Z 0600/0624 29008KT P6SM FEW100 FEW200
     FM060200 09005KT P6SM SKC
     FM060700 32007KT P6SM SCT080=



000
FTUS46 KOTX 052328
TAFSFF
TAF
KSFF 052328Z 0600/0624 06010G16KT P6SM FEW050 FEW200
     FM060200 03004KT P6SM SKC=



000
FTUS46 KOTX 052328
TAFLWS
TAF
KLWS 052328Z 0600/0624 31011G16KT P6SM FEW100 SCT200
     FM060200 VRB05KT P6SM SKC=



000
FTUS46 KOTX 052328
TAFCOE
TAF
KCOE 052328Z 0600/0624 03015G21KT P6SM FEW050 FEW200
     FM060400 05012KT P6SM SKC
     FM062200 33006KT P6SM FEW120
      AMD LTD TO CLD AND VIS=



000
FTUS46 KOTX 052328
TAFEAT
TAF
KEAT 052328Z 0600/0624 29008KT P6SM FEW100 FEW200
     FM060200 09005KT P6SM SKC
     FM060700 32007KT P6SM SCT080=



000
FTUS46 KOTX 052328
TAFMWH
TAF
KMWH 052328Z 0600/0624 02014G20KT P6SM FEW200
     FM060200 03007KT P6SM SKC
     FM062100 18007KT P6SM SKC=



000
FTUS46 KOTX 052328
TAFGEG
TAF
KGEG 052328Z 0600/0624 04014G19KT P6SM FEW050 FEW200
     FM060300 04006KT P6SM SKC
     FM062300 33007KT P6SM SKC=



000
FTUS46 KOTX 052328
TAFMWH
TAF
KMWH 052328Z 0600/0624 02014G20KT P6SM FEW200
     FM060200 03007KT P6SM SKC
     FM062100 18007KT P6SM SKC=



000
FTUS46 KOTX 052328
TAFCOE
TAF
KCOE 052328Z 0600/0624 03015G21KT P6SM FEW050 FEW200
     FM060400 05012KT P6SM SKC
     FM062200 33006KT P6SM FEW120
      AMD LTD TO CLD AND VIS=



000
FTUS46 KOTX 052328
TAFSFF
TAF
KSFF 052328Z 0600/0624 06010G16KT P6SM FEW050 FEW200
     FM060200 03004KT P6SM SKC=



000
FTUS46 KOTX 052328
TAFLWS
TAF
KLWS 052328Z 0600/0624 31011G16KT P6SM FEW100 SCT200
     FM060200 VRB05KT P6SM SKC=



000
FTUS46 KOTX 052328
TAFPUW
TAF
KPUW 052328Z 0600/0624 29012G15KT P6SM FEW100 SCT200
     FM060200 35012KT P6SM SKC
     FM060500 06005KT P6SM SKC=



000
FTUS46 KOTX 052328
TAFEAT
TAF
KEAT 052328Z 0600/0624 29008KT P6SM FEW100 FEW200
     FM060200 09005KT P6SM SKC
     FM060700 32007KT P6SM SCT080=



000
FTUS46 KOTX 052328
TAFSFF
TAF
KSFF 052328Z 0600/0624 06010G16KT P6SM FEW050 FEW200
     FM060200 03004KT P6SM SKC=



000
FTUS46 KOTX 052328
TAFGEG
TAF
KGEG 052328Z 0600/0624 04014G19KT P6SM FEW050 FEW200
     FM060300 04006KT P6SM SKC
     FM062300 33007KT P6SM SKC=



000
FTUS46 KOTX 052328
TAFPUW
TAF
KPUW 052328Z 0600/0624 29012G15KT P6SM FEW100 SCT200
     FM060200 35012KT P6SM SKC
     FM060500 06005KT P6SM SKC=



000
FTUS46 KOTX 052328
TAFCOE
TAF
KCOE 052328Z 0600/0624 03015G21KT P6SM FEW050 FEW200
     FM060400 05012KT P6SM SKC
     FM062200 33006KT P6SM FEW120
      AMD LTD TO CLD AND VIS=



000
FTUS46 KOTX 052328
TAFEAT
TAF
KEAT 052328Z 0600/0624 29008KT P6SM FEW100 FEW200
     FM060200 09005KT P6SM SKC
     FM060700 32007KT P6SM SCT080=



000
FTUS46 KOTX 052328
TAFLWS
TAF
KLWS 052328Z 0600/0624 31011G16KT P6SM FEW100 SCT200
     FM060200 VRB05KT P6SM SKC=



000
FTUS46 KOTX 052328
TAFMWH
TAF
KMWH 052328Z 0600/0624 02014G20KT P6SM FEW200
     FM060200 03007KT P6SM SKC
     FM062100 18007KT P6SM SKC=



000
FTUS46 KOTX 052121 AAA
TAFGEG
TAF AMD
KGEG 052121Z 0521/0618 04014G19KT P6SM FEW050 FEW200
     FM060300 04006KT P6SM SKC=



000
FTUS46 KOTX 052121 AAA
TAFGEG
TAF AMD
KGEG 052121Z 0521/0618 04014G19KT P6SM FEW050 FEW200
     FM060300 04006KT P6SM SKC=



000
FTUS46 KOTX 051720
TAFCOE
TAF
KCOE 051720Z 0518/0618 03019G24KT P6SM FEW050 FEW200
     FM052200 03015G21KT P6SM FEW050 FEW200
     FM060400 05012KT P6SM SKC
      AMD LTD TO CLD AND VIS=



000
FTUS46 KOTX 051720
TAFMWH
TAF
KMWH 051720Z 0518/0618 01017G25KT P6SM FEW100 FEW200
     FM052200 02014G20KT P6SM FEW200
     FM060200 03007KT P6SM SKC=



000
FTUS46 KOTX 051720
TAFGEG
TAF
KGEG 051720Z 0518/0618 03013G20KT P6SM FEW100 FEW200
     FM052100 02014G19KT P6SM FEW050 FEW200
     FM060300 04006KT P6SM SKC=



000
FTUS46 KOTX 051720
TAFEAT
TAF
KEAT 051720Z 0518/0618 28011KT P6SM FEW090 FEW200
     FM052000 29008KT P6SM FEW100 FEW200
     FM060200 09005KT P6SM SKC
     FM060700 32005KT P6SM SCT080=



000
FTUS46 KOTX 051720
TAFLWS
TAF
KLWS 051720Z 0518/0618 33011KT P6SM FEW100 SCT200
     FM052100 31011G16KT P6SM FEW100 SCT200
     FM060200 VRB05KT P6SM SKC=



000
FTUS46 KOTX 051720
TAFGEG
TAF
KGEG 051720Z 0518/0618 03013G20KT P6SM FEW100 FEW200
     FM052100 02014G19KT P6SM FEW050 FEW200
     FM060300 04006KT P6SM SKC=



000
FTUS46 KOTX 051720
TAFPUW
TAF
KPUW 051720Z 0518/0618 09009KT P6SM SCT100 SCT200
     FM052000 29011G15KT P6SM FEW100 SCT200
     FM060200 02008KT P6SM SKC
     FM060500 06003KT P6SM SKC=



000
FTUS46 KOTX 051720
TAFGEG
TAF
KGEG 051720Z 0518/0618 03013G20KT P6SM FEW100 FEW200
     FM052100 02014G19KT P6SM FEW050 FEW200
     FM060300 04006KT P6SM SKC=



000
FTUS46 KOTX 051720
TAFPUW
TAF
KPUW 051720Z 0518/0618 09009KT P6SM SCT100 SCT200
     FM052000 29011G15KT P6SM FEW100 SCT200
     FM060200 02008KT P6SM SKC
     FM060500 06003KT P6SM SKC=



000
FTUS46 KOTX 051720
TAFMWH
TAF
KMWH 051720Z 0518/0618 01017G25KT P6SM FEW100 FEW200
     FM052200 02014G20KT P6SM FEW200
     FM060200 03007KT P6SM SKC=



000
FTUS46 KOTX 051720
TAFSFF
TAF
KSFF 051720Z 0518/0618 06010G18KT P6SM FEW100 FEW200
     FM052100 06010G16KT P6SM FEW050 FEW200
     FM060200 03004KT P6SM SKC=



000
FTUS46 KOTX 051720
TAFCOE
TAF
KCOE 051720Z 0518/0618 03019G24KT P6SM FEW050 FEW200
     FM052200 03015G21KT P6SM FEW050 FEW200
     FM060400 05012KT P6SM SKC
      AMD LTD TO CLD AND VIS=



000
FTUS46 KOTX 051720
TAFEAT
TAF
KEAT 051720Z 0518/0618 28011KT P6SM FEW090 FEW200
     FM052000 29008KT P6SM FEW100 FEW200
     FM060200 09005KT P6SM SKC
     FM060700 32005KT P6SM SCT080=



000
FTUS46 KOTX 051720
TAFCOE
TAF
KCOE 051720Z 0518/0618 03019G24KT P6SM FEW050 FEW200
     FM052200 03015G21KT P6SM FEW050 FEW200
     FM060400 05012KT P6SM SKC
      AMD LTD TO CLD AND VIS=



000
FTUS46 KOTX 051720
TAFLWS
TAF
KLWS 051720Z 0518/0618 33011KT P6SM FEW100 SCT200
     FM052100 31011G16KT P6SM FEW100 SCT200
     FM060200 VRB05KT P6SM SKC=



000
FTUS46 KOTX 051720
TAFMWH
TAF
KMWH 051720Z 0518/0618 01017G25KT P6SM FEW100 FEW200
     FM052200 02014G20KT P6SM FEW200
     FM060200 03007KT P6SM SKC=



000
FTUS46 KOTX 051720
TAFGEG
TAF
KGEG 051720Z 0518/0618 03013G20KT P6SM FEW100 FEW200
     FM052100 02014G19KT P6SM FEW050 FEW200
     FM060300 04006KT P6SM SKC=



000
FTUS46 KOTX 051720
TAFSFF
TAF
KSFF 051720Z 0518/0618 06010G18KT P6SM FEW100 FEW200
     FM052100 06010G16KT P6SM FEW050 FEW200
     FM060200 03004KT P6SM SKC=



000
FTUS46 KOTX 051720
TAFEAT
TAF
KEAT 051720Z 0518/0618 28011KT P6SM FEW090 FEW200
     FM052000 29008KT P6SM FEW100 FEW200
     FM060200 09005KT P6SM SKC
     FM060700 32005KT P6SM SCT080=



000
FTUS46 KOTX 051720
TAFPUW
TAF
KPUW 051720Z 0518/0618 09009KT P6SM SCT100 SCT200
     FM052000 29011G15KT P6SM FEW100 SCT200
     FM060200 02008KT P6SM SKC
     FM060500 06003KT P6SM SKC=



000
FTUS46 KOTX 051720
TAFSFF
TAF
KSFF 051720Z 0518/0618 06010G18KT P6SM FEW100 FEW200
     FM052100 06010G16KT P6SM FEW050 FEW200
     FM060200 03004KT P6SM SKC=



000
FTUS46 KOTX 051720
TAFLWS
TAF
KLWS 051720Z 0518/0618 33011KT P6SM FEW100 SCT200
     FM052100 31011G16KT P6SM FEW100 SCT200
     FM060200 VRB05KT P6SM SKC=



000
FTUS46 KOTX 051720
TAFLWS
TAF
KLWS 051720Z 0518/0618 33011KT P6SM FEW100 SCT200
     FM052100 31011G16KT P6SM FEW100 SCT200
     FM060200 VRB05KT P6SM SKC=



000
FTUS46 KOTX 051720
TAFPUW
TAF
KPUW 051720Z 0518/0618 09009KT P6SM SCT100 SCT200
     FM052000 29011G15KT P6SM FEW100 SCT200
     FM060200 02008KT P6SM SKC
     FM060500 06003KT P6SM SKC=



000
FTUS46 KOTX 051720
TAFSFF
TAF
KSFF 051720Z 0518/0618 06010G18KT P6SM FEW100 FEW200
     FM052100 06010G16KT P6SM FEW050 FEW200
     FM060200 03004KT P6SM SKC=



000
FTUS46 KOTX 051720
TAFEAT
TAF
KEAT 051720Z 0518/0618 28011KT P6SM FEW090 FEW200
     FM052000 29008KT P6SM FEW100 FEW200
     FM060200 09005KT P6SM SKC
     FM060700 32005KT P6SM SCT080=



000
FTUS46 KOTX 051506 AAA
TAFSFF
TAF AMD
KSFF 051506Z 0515/0612 04010G18KT P6SM SCT100
     FM052100 06010G16KT P6SM FEW050
     FM060200 03004KT P6SM SKC=



000
FTUS46 KOTX 051506 AAA
TAFSFF
TAF AMD
KSFF 051506Z 0515/0612 04010G18KT P6SM SCT100
     FM052100 06010G16KT P6SM FEW050
     FM060200 03004KT P6SM SKC=



000
FTUS46 KOTX 051506 AAA
TAFSFF
TAF AMD
KSFF 051506Z 0515/0612 04010G18KT P6SM SCT100
     FM052100 06010G16KT P6SM FEW050
     FM060200 03004KT P6SM SKC=



000
FTUS46 KOTX 051506 AAA
TAFSFF
TAF AMD
KSFF 051506Z 0515/0612 04010G18KT P6SM SCT100
     FM052100 06010G16KT P6SM FEW050
     FM060200 03004KT P6SM SKC=



000
FTUS46 KOTX 051505 AAA
TAFGEG
TAF AMD
KGEG 051505Z 0515/0612 04013G20KT P6SM SCT100
     FM052100 02014G19KT P6SM FEW050
     FM060300 04006KT P6SM SKC=



000
FTUS46 KOTX 051505 AAA
TAFGEG
TAF AMD
KGEG 051505Z 0515/0612 04013G20KT P6SM SCT100
     FM052100 02014G19KT P6SM FEW050
     FM060300 04006KT P6SM SKC=



000
FTUS46 KOTX 051125
TAFPUW
TAF
KPUW 051125Z 0512/0612 VRB03KT P6SM SCT200
     FM051500 09009KT P6SM FEW100
     FM052000 29011G15KT P6SM SKC
     FM060200 02008KT P6SM SKC
     FM060500 06003KT P6SM SKC=



000
FTUS46 KOTX 051125
TAFEAT
TAF
KEAT 051125Z 0512/0612 30010KT P6SM FEW200
     FM051500 32009G14KT P6SM FEW090
     FM052000 29008KT P6SM SKC
     FM060200 09005KT P6SM SKC
     FM060700 32005KT P6SM SCT080=



000
FTUS46 KOTX 051125
TAFGEG
TAF
KGEG 051125Z 0512/0612 01012G20KT P6SM SCT100
     FM052100 02014KT P6SM FEW050
     FM060300 04006KT P6SM SKC=



000
FTUS46 KOTX 051125
TAFSFF
TAF
KSFF 051125Z 0512/0612 01010G18KT P6SM SCT100
     FM052100 06010KT P6SM FEW050
     FM060200 03004KT P6SM SKC=



000
FTUS46 KOTX 051125
TAFMWH
TAF
KMWH 051125Z 0512/0612 35013G20KT P6SM FEW200
     FM051500 01020G27KT P6SM FEW100
     FM052200 02014G20KT P6SM SKC
     FM060200 01007KT P6SM SKC=



000
FTUS46 KOTX 051125
TAFLWS
TAF
KLWS 051125Z 0512/0612 VRB04KT P6SM BKN200
     FM051800 33011KT P6SM FEW100
     FM060200 VRB05KT P6SM SKC=



000
FTUS46 KOTX 051125
TAFCOE
TAF
KCOE 051125Z 0512/0612 03015G22KT P6SM SCT100
     FM051400 02020G30KT P6SM FEW050 BKN100
     FM051800 03017G24KT P6SM FEW050 SCT100
     FM060300 05012KT P6SM SKC
      AMD LTD TO CLD AND VIS=



000
FTUS46 KOTX 051125
TAFLWS
TAF
KLWS 051125Z 0512/0612 VRB04KT P6SM BKN200
     FM051800 33011KT P6SM FEW100
     FM060200 VRB05KT P6SM SKC=



000
FTUS46 KOTX 051125
TAFPUW
TAF
KPUW 051125Z 0512/0612 VRB03KT P6SM SCT200
     FM051500 09009KT P6SM FEW100
     FM052000 29011G15KT P6SM SKC
     FM060200 02008KT P6SM SKC
     FM060500 06003KT P6SM SKC=



000
FTUS46 KOTX 051125
TAFSFF
TAF
KSFF 051125Z 0512/0612 01010G18KT P6SM SCT100
     FM052100 06010KT P6SM FEW050
     FM060200 03004KT P6SM SKC=



000
FTUS46 KOTX 051125
TAFLWS
TAF
KLWS 051125Z 0512/0612 VRB04KT P6SM BKN200
     FM051800 33011KT P6SM FEW100
     FM060200 VRB05KT P6SM SKC=



000
FTUS46 KOTX 051125
TAFPUW
TAF
KPUW 051125Z 0512/0612 VRB03KT P6SM SCT200
     FM051500 09009KT P6SM FEW100
     FM052000 29011G15KT P6SM SKC
     FM060200 02008KT P6SM SKC
     FM060500 06003KT P6SM SKC=



000
FTUS46 KOTX 051125
TAFMWH
TAF
KMWH 051125Z 0512/0612 35013G20KT P6SM FEW200
     FM051500 01020G27KT P6SM FEW100
     FM052200 02014G20KT P6SM SKC
     FM060200 01007KT P6SM SKC=



000
FTUS46 KOTX 051125
TAFCOE
TAF
KCOE 051125Z 0512/0612 03015G22KT P6SM SCT100
     FM051400 02020G30KT P6SM FEW050 BKN100
     FM051800 03017G24KT P6SM FEW050 SCT100
     FM060300 05012KT P6SM SKC
      AMD LTD TO CLD AND VIS=



000
FTUS46 KOTX 051125
TAFGEG
TAF
KGEG 051125Z 0512/0612 01012G20KT P6SM SCT100
     FM052100 02014KT P6SM FEW050
     FM060300 04006KT P6SM SKC=



000
FTUS46 KOTX 051125
TAFCOE
TAF
KCOE 051125Z 0512/0612 03015G22KT P6SM SCT100
     FM051400 02020G30KT P6SM FEW050 BKN100
     FM051800 03017G24KT P6SM FEW050 SCT100
     FM060300 05012KT P6SM SKC
      AMD LTD TO CLD AND VIS=



000
FTUS46 KOTX 051125
TAFEAT
TAF
KEAT 051125Z 0512/0612 30010KT P6SM FEW200
     FM051500 32009G14KT P6SM FEW090
     FM052000 29008KT P6SM SKC
     FM060200 09005KT P6SM SKC
     FM060700 32005KT P6SM SCT080=



000
FTUS46 KOTX 051125
TAFSFF
TAF
KSFF 051125Z 0512/0612 01010G18KT P6SM SCT100
     FM052100 06010KT P6SM FEW050
     FM060200 03004KT P6SM SKC=



000
FTUS46 KOTX 051125
TAFGEG
TAF
KGEG 051125Z 0512/0612 01012G20KT P6SM SCT100
     FM052100 02014KT P6SM FEW050
     FM060300 04006KT P6SM SKC=



000
FTUS46 KOTX 051125
TAFGEG
TAF
KGEG 051125Z 0512/0612 01012G20KT P6SM SCT100
     FM052100 02014KT P6SM FEW050
     FM060300 04006KT P6SM SKC=



000
FTUS46 KOTX 051125
TAFMWH
TAF
KMWH 051125Z 0512/0612 35013G20KT P6SM FEW200
     FM051500 01020G27KT P6SM FEW100
     FM052200 02014G20KT P6SM SKC
     FM060200 01007KT P6SM SKC=



000
FTUS46 KOTX 051125
TAFCOE
TAF
KCOE 051125Z 0512/0612 03015G22KT P6SM SCT100
     FM051400 02020G30KT P6SM FEW050 BKN100
     FM051800 03017G24KT P6SM FEW050 SCT100
     FM060300 05012KT P6SM SKC
      AMD LTD TO CLD AND VIS=



000
FTUS46 KOTX 051125
TAFMWH
TAF
KMWH 051125Z 0512/0612 35013G20KT P6SM FEW200
     FM051500 01020G27KT P6SM FEW100
     FM052200 02014G20KT P6SM SKC
     FM060200 01007KT P6SM SKC=



000
FTUS46 KOTX 051125
TAFEAT
TAF
KEAT 051125Z 0512/0612 30010KT P6SM FEW200
     FM051500 32009G14KT P6SM FEW090
     FM052000 29008KT P6SM SKC
     FM060200 09005KT P6SM SKC
     FM060700 32005KT P6SM SCT080=



000
FTUS46 KOTX 051125
TAFLWS
TAF
KLWS 051125Z 0512/0612 VRB04KT P6SM BKN200
     FM051800 33011KT P6SM FEW100
     FM060200 VRB05KT P6SM SKC=



000
FTUS46 KOTX 051125
TAFSFF
TAF
KSFF 051125Z 0512/0612 01010G18KT P6SM SCT100
     FM052100 06010KT P6SM FEW050
     FM060200 03004KT P6SM SKC=



000
FTUS46 KOTX 051125
TAFEAT
TAF
KEAT 051125Z 0512/0612 30010KT P6SM FEW200
     FM051500 32009G14KT P6SM FEW090
     FM052000 29008KT P6SM SKC
     FM060200 09005KT P6SM SKC
     FM060700 32005KT P6SM SCT080=



000
FTUS46 KOTX 051125
TAFPUW
TAF
KPUW 051125Z 0512/0612 VRB03KT P6SM SCT200
     FM051500 09009KT P6SM FEW100
     FM052000 29011G15KT P6SM SKC
     FM060200 02008KT P6SM SKC
     FM060500 06003KT P6SM SKC=



000
FTUS46 KOTX 050529
TAFLWS
TAF
KLWS 050529Z 0506/0606 33008KT P6SM BKN200
     FM051400 01005KT P6SM FEW100
     FM052200 33011KT P6SM SKC
     FM060200 VRB05KT P6SM SKC=



000
FTUS46 KOTX 050529
TAFGEG
TAF
KGEG 050529Z 0506/0606 36009G15KT P6SM FEW100
     FM050900 35011G18KT P6SM SCT100
     FM051100 01015G25KT P6SM SCT100
     FM051400 02012G19KT P6SM FEW050 SCT100
     FM052000 02014KT P6SM FEW050
     FM060300 03007KT P6SM SKC=



000
FTUS46 KOTX 050529
TAFCOE
TAF
KCOE 050529Z 0506/0606 01008KT P6SM FEW100
     FM050800 06012G20KT P6SM SCT100
     FM051300 02020G30KT P6SM FEW050 BKN100
     FM051800 03017G22KT P6SM FEW050 SCT100
     FM052300 04014KT P6SM FEW050
     FM060300 05010KT P6SM SKC
      AMD LTD TO CLD AND VIS=



000
FTUS46 KOTX 050529
TAFSFF
TAF
KSFF 050529Z 0506/0606 36008G15KT P6SM FEW100
     FM050900 35010G15KT P6SM SCT100
     FM051100 02012G20KT P6SM SCT100
     FM051500 02008G18KT P6SM FEW050 SCT100
     FM052000 04010KT P6SM FEW050
     FM060200 03004KT P6SM SKC=



000
FTUS46 KOTX 050529
TAFEAT
TAF
KEAT 050529Z 0506/0606 34010KT P6SM FEW200
     FM051500 32009G14KT P6SM FEW090
     FM052000 29008KT P6SM SKC
     FM060200 09005KT P6SM SKC=



000
FTUS46 KOTX 050529
TAFMWH
TAF
KMWH 050529Z 0506/0606 35012KT P6SM SCT200
     FM050900 33013G20KT P6SM FEW200
     FM051500 01020G27KT P6SM FEW100
     FM052200 02014G20KT P6SM SKC
     FM060200 01007KT P6SM SKC=



000
FTUS46 KOTX 050529
TAFPUW
TAF
KPUW 050529Z 0506/0606 VRB03KT P6SM SCT200
     FM051500 09009KT P6SM FEW100
     FM052200 29011KT P6SM SKC
     FM060200 02007KT P6SM SKC=



000
FTUS46 KOTX 050529
TAFGEG
TAF
KGEG 050529Z 0506/0606 36009G15KT P6SM FEW100
     FM050900 35011G18KT P6SM SCT100
     FM051100 01015G25KT P6SM SCT100
     FM051400 02012G19KT P6SM FEW050 SCT100
     FM052000 02014KT P6SM FEW050
     FM060300 03007KT P6SM SKC=



000
FTUS46 KOTX 050529
TAFMWH
TAF
KMWH 050529Z 0506/0606 35012KT P6SM SCT200
     FM050900 33013G20KT P6SM FEW200
     FM051500 01020G27KT P6SM FEW100
     FM052200 02014G20KT P6SM SKC
     FM060200 01007KT P6SM SKC=



000
FTUS46 KOTX 050529
TAFSFF
TAF
KSFF 050529Z 0506/0606 36008G15KT P6SM FEW100
     FM050900 35010G15KT P6SM SCT100
     FM051100 02012G20KT P6SM SCT100
     FM051500 02008G18KT P6SM FEW050 SCT100
     FM052000 04010KT P6SM FEW050
     FM060200 03004KT P6SM SKC=



000
FTUS46 KOTX 050529
TAFEAT
TAF
KEAT 050529Z 0506/0606 34010KT P6SM FEW200
     FM051500 32009G14KT P6SM FEW090
     FM052000 29008KT P6SM SKC
     FM060200 09005KT P6SM SKC=



000
FTUS46 KOTX 050529
TAFLWS
TAF
KLWS 050529Z 0506/0606 33008KT P6SM BKN200
     FM051400 01005KT P6SM FEW100
     FM052200 33011KT P6SM SKC
     FM060200 VRB05KT P6SM SKC=



000
FTUS46 KOTX 050529
TAFCOE
TAF
KCOE 050529Z 0506/0606 01008KT P6SM FEW100
     FM050800 06012G20KT P6SM SCT100
     FM051300 02020G30KT P6SM FEW050 BKN100
     FM051800 03017G22KT P6SM FEW050 SCT100
     FM052300 04014KT P6SM FEW050
     FM060300 05010KT P6SM SKC
      AMD LTD TO CLD AND VIS=



000
FTUS46 KOTX 050529
TAFPUW
TAF
KPUW 050529Z 0506/0606 VRB03KT P6SM SCT200
     FM051500 09009KT P6SM FEW100
     FM052200 29011KT P6SM SKC
     FM060200 02007KT P6SM SKC=



    US Dept of Commerce
    National Oceanic and Atmospheric Administration
    National Weather Service
    1325 East West Highway
    Silver Spring, MD 20910
    Page Author: NWS Internet Services Team
Disclaimer
Information Quality
Credits
Glossary
Privacy Policy
Freedom of Information Act (FOIA)
About Us
Career Opportunities